sensor_id;sensor_type;location;lat;lon;timestamp;P1;durP1;ratioP1;P2;durP2;ratioP2
53299;SDS011;39187;48.476;8.310;2022-09-03T00:01:42;5.00;;;4.70;;
53299;SDS011;39187;48.476;8.310;2022-09-03T00:04:50;5.30;;;5.00;;
53299;SDS011;39187;48.476;8.310;2022-09-03T00:07:16;5.27;;;5.07;;
53299;SDS011;39187;48.476;8.310;2022-09-03T00:09:53;5.10;;;4.70;;
53299;SDS011;39187;48.476;8.310;2022-09-03T00:12:25;5.07;;;4.77;;
53299;SDS011;39187;48.476;8.310;2022-09-03T00:14:59;5.53;;;4.87;;
53299;SDS011;39187;48.476;8.310;2022-09-03T00:17:39;5.50;;;5.20;;
53299;SDS011;39187;48.476;8.310;2022-09-03T00:20:10;4.17;;;4.03;;
53299;SDS011;39187;48.476;8.310;2022-09-03T00:22:56;4.03;;;3.93;;
53299;SDS011;39187;48.476;8.310;2022-09-03T00:25:28;5.10;;;3.93;;
53299;SDS011;39187;48.476;8.310;2022-09-03T00:28:01;3.83;;;3.73;;
53299;SDS011;39187;48.476;8.310;2022-09-03T00:30:33;4.20;;;3.90;;
53299;SDS011;39187;48.476;8.310;2022-09-03T00:33:04;3.80;;;3.70;;
53299;SDS011;39187;48.476;8.310;2022-09-03T00:36:01;4.50;;;4.30;;
53299;SDS011;39187;48.476;8.310;2022-09-03T00:38:30;4.60;;;4.40;;
53299;SDS011;39187;48.476;8.310;2022-09-03T00:41:05;4.73;;;4.63;;
53299;SDS011;39187;48.476;8.310;2022-09-03T00:43:45;4.70;;;4.50;;
53299;SDS011;39187;48.476;8.310;2022-09-03T00:57:50;4.17;;;3.87;;
53299;SDS011;39187;48.476;8.310;2022-09-03T01:00:18;3.47;;;3.37;;
53299;SDS011;39187;48.476;8.310;2022-09-03T01:11:09;4.93;;;4.50;;
53299;SDS011;39187;48.476;8.310;2022-09-03T01:17:04;4.57;;;4.27;;
53299;SDS011;39187;48.476;8.310;2022-09-03T01:28:28;3.27;;;3.17;;
53299;SDS011;39187;48.476;8.310;2022-09-03T01:58:21;2.80;;;2.60;;
53299;SDS011;39187;48.476;8.310;2022-09-03T02:00:54;3.27;;;3.07;;
53299;SDS011;39187;48.476;8.310;2022-09-03T02:03:34;2.97;;;2.87;;
53299;SDS011;39187;48.476;8.310;2022-09-03T02:06:04;3.17;;;3.07;;
53299;SDS011;39187;48.476;8.310;2022-09-03T02:08:31;2.63;;;2.53;;
53299;SDS011;39187;48.476;8.310;2022-09-03T02:10:57;2.90;;;2.70;;
53299;SDS011;39187;48.476;8.310;2022-09-03T02:13:43;2.63;;;2.47;;
53299;SDS011;39187;48.476;8.310;2022-09-03T02:16:20;3.13;;;3.03;;
53299;SDS011;39187;48.476;8.310;2022-09-03T02:18:55;2.80;;;2.70;;
53299;SDS011;39187;48.476;8.310;2022-09-03T02:21:24;2.53;;;2.43;;
53299;SDS011;39187;48.476;8.310;2022-09-03T02:23:52;2.67;;;2.57;;
53299;SDS011;39187;48.476;8.310;2022-09-03T02:26:20;3.00;;;2.90;;
53299;SDS011;39187;48.476;8.310;2022-09-03T02:28:47;2.80;;;2.70;;
53299;SDS011;39187;48.476;8.310;2022-09-03T02:31:15;2.90;;;2.80;;
53299;SDS011;39187;48.476;8.310;2022-09-03T02:33:42;3.03;;;2.90;;
53299;SDS011;39187;48.476;8.310;2022-09-03T02:36:11;3.03;;;2.93;;
53299;SDS011;39187;48.476;8.310;2022-09-03T02:38:40;3.87;;;3.47;;
53299;SDS011;39187;48.476;8.310;2022-09-03T02:41:07;3.03;;;2.93;;
53299;SDS011;39187;48.476;8.310;2022-09-03T02:43:35;3.90;;;3.03;;
53299;SDS011;39187;48.476;8.310;2022-09-03T02:46:07;4.03;;;3.40;;
53299;SDS011;39187;48.476;8.310;2022-09-03T02:48:38;3.43;;;3.23;;
53299;SDS011;39187;48.476;8.310;2022-09-03T02:51:03;3.50;;;3.40;;
53299;SDS011;39187;48.476;8.310;2022-09-03T02:53:29;3.03;;;2.87;;
53299;SDS011;39187;48.476;8.310;2022-09-03T02:55:58;3.50;;;3.40;;
53299;SDS011;39187;48.476;8.310;2022-09-03T02:58:24;3.67;;;3.57;;
53299;SDS011;39187;48.476;8.310;2022-09-03T03:00:50;3.47;;;3.37;;
53299;SDS011;39187;48.476;8.310;2022-09-03T03:03:16;3.00;;;2.80;;
53299;SDS011;39187;48.476;8.310;2022-09-03T03:05:43;4.00;;;3.70;;
53299;SDS011;39187;48.476;8.310;2022-09-03T03:08:12;3.07;;;2.97;;
53299;SDS011;39187;48.476;8.310;2022-09-03T03:10:40;2.97;;;2.87;;
53299;SDS011;39187;48.476;8.310;2022-09-03T03:13:08;3.67;;;3.57;;
53299;SDS011;39187;48.476;8.310;2022-09-03T03:15:33;3.40;;;3.23;;
53299;SDS011;39187;48.476;8.310;2022-09-03T03:17:59;3.93;;;3.73;;
53299;SDS011;39187;48.476;8.310;2022-09-03T03:20:24;4.40;;;3.50;;
53299;SDS011;39187;48.476;8.310;2022-09-03T03:22:50;2.90;;;2.80;;
53299;SDS011;39187;48.476;8.310;2022-09-03T03:25:15;4.03;;;3.43;;
53299;SDS011;39187;48.476;8.310;2022-09-03T03:27:41;2.90;;;2.80;;
53299;SDS011;39187;48.476;8.310;2022-09-03T03:30:08;3.20;;;2.97;;
53299;SDS011;39187;48.476;8.310;2022-09-03T03:32:38;3.10;;;3.00;;
53299;SDS011;39187;48.476;8.310;2022-09-03T03:35:04;6.40;;;3.30;;
53299;SDS011;39187;48.476;8.310;2022-09-03T03:37:31;3.50;;;3.20;;
53299;SDS011;39187;48.476;8.310;2022-09-03T03:39:57;3.97;;;3.67;;
53299;SDS011;39187;48.476;8.310;2022-09-03T03:42:24;4.30;;;4.10;;
53299;SDS011;39187;48.476;8.310;2022-09-03T03:44:49;4.03;;;3.83;;
53299;SDS011;39187;48.476;8.310;2022-09-03T03:47:15;3.63;;;3.33;;
53299;SDS011;39187;48.476;8.310;2022-09-03T03:49:41;3.50;;;3.40;;
53299;SDS011;39187;48.476;8.310;2022-09-03T03:52:07;3.93;;;3.83;;
53299;SDS011;39187;48.476;8.310;2022-09-03T03:54:33;3.90;;;3.80;;
53299;SDS011;39187;48.476;8.310;2022-09-03T03:56:59;4.30;;;4.10;;
53299;SDS011;39187;48.476;8.310;2022-09-03T03:59:24;3.70;;;3.60;;
53299;SDS011;39187;48.476;8.310;2022-09-03T04:01:50;4.30;;;4.10;;
53299;SDS011;39187;48.476;8.310;2022-09-03T04:04:19;4.00;;;3.80;;
53299;SDS011;39187;48.476;8.310;2022-09-03T04:06:44;5.03;;;4.73;;
53299;SDS011;39187;48.476;8.310;2022-09-03T04:09:10;5.13;;;4.73;;
53299;SDS011;39187;48.476;8.310;2022-09-03T04:11:35;4.17;;;3.97;;
53299;SDS011;39187;48.476;8.310;2022-09-03T04:14:01;3.70;;;3.50;;
53299;SDS011;39187;48.476;8.310;2022-09-03T04:16:27;3.50;;;3.37;;
53299;SDS011;39187;48.476;8.310;2022-09-03T04:18:53;3.77;;;3.67;;
53299;SDS011;39187;48.476;8.310;2022-09-03T04:21:21;3.50;;;3.40;;
53299;SDS011;39187;48.476;8.310;2022-09-03T04:23:54;3.17;;;3.00;;
53299;SDS011;39187;48.476;8.310;2022-09-03T04:26:22;4.00;;;3.10;;
53299;SDS011;39187;48.476;8.310;2022-09-03T04:28:49;3.17;;;3.07;;
53299;SDS011;39187;48.476;8.310;2022-09-03T04:31:16;2.90;;;2.80;;
53299;SDS011;39187;48.476;8.310;2022-09-03T04:33:43;3.00;;;2.90;;
53299;SDS011;39187;48.476;8.310;2022-09-03T04:36:10;2.97;;;2.87;;
53299;SDS011;39187;48.476;8.310;2022-09-03T04:38:38;2.40;;;2.30;;
53299;SDS011;39187;48.476;8.310;2022-09-03T04:41:06;2.63;;;2.53;;
53299;SDS011;39187;48.476;8.310;2022-09-03T04:43:33;2.67;;;2.43;;
53299;SDS011;39187;48.476;8.310;2022-09-03T04:46:00;2.37;;;2.13;;
53299;SDS011;39187;48.476;8.310;2022-09-03T04:48:29;2.60;;;2.50;;
53299;SDS011;39187;48.476;8.310;2022-09-03T04:51:06;3.13;;;2.93;;
53299;SDS011;39187;48.476;8.310;2022-09-03T04:53:41;2.67;;;2.57;;
53299;SDS011;39187;48.476;8.310;2022-09-03T04:56:13;2.63;;;2.43;;
53299;SDS011;39187;48.476;8.310;2022-09-03T04:58:41;2.90;;;1.93;;
53299;SDS011;39187;48.476;8.310;2022-09-03T05:01:08;2.13;;;2.03;;
53299;SDS011;39187;48.476;8.310;2022-09-03T05:03:35;1.93;;;1.83;;
53299;SDS011;39187;48.476;8.310;2022-09-03T05:06:01;2.10;;;2.00;;
53299;SDS011;39187;48.476;8.310;2022-09-03T05:08:27;1.87;;;1.77;;
53299;SDS011;39187;48.476;8.310;2022-09-03T05:10:59;2.00;;;1.80;;
53299;SDS011;39187;48.476;8.310;2022-09-03T05:13:25;2.40;;;1.80;;
53299;SDS011;39187;48.476;8.310;2022-09-03T05:15:51;1.33;;;1.33;;
53299;SDS011;39187;48.476;8.310;2022-09-03T05:18:16;2.30;;;1.97;;
53299;SDS011;39187;48.476;8.310;2022-09-03T05:20:43;1.90;;;1.80;;
53299;SDS011;39187;48.476;8.310;2022-09-03T05:23:08;1.97;;;1.80;;
53299;SDS011;39187;48.476;8.310;2022-09-03T05:25:34;2.07;;;1.97;;
53299;SDS011;39187;48.476;8.310;2022-09-03T05:28:02;2.13;;;2.03;;
53299;SDS011;39187;48.476;8.310;2022-09-03T05:30:28;2.17;;;2.07;;
53299;SDS011;39187;48.476;8.310;2022-09-03T05:32:55;2.90;;;2.03;;
53299;SDS011;39187;48.476;8.310;2022-09-03T05:35:21;3.07;;;2.60;;
53299;SDS011;39187;48.476;8.310;2022-09-03T05:37:46;1.63;;;1.53;;
53299;SDS011;39187;48.476;8.310;2022-09-03T05:40:12;2.20;;;2.00;;
53299;SDS011;39187;48.476;8.310;2022-09-03T05:42:37;2.13;;;2.03;;
53299;SDS011;39187;48.476;8.310;2022-09-03T05:45:07;2.30;;;2.20;;
53299;SDS011;39187;48.476;8.310;2022-09-03T05:47:37;2.40;;;2.30;;
53299;SDS011;39187;48.476;8.310;2022-09-03T05:50:04;1.70;;;1.60;;
53299;SDS011;39187;48.476;8.310;2022-09-03T05:52:31;2.03;;;1.93;;
53299;SDS011;39187;48.476;8.310;2022-09-03T05:54:57;2.30;;;2.20;;
53299;SDS011;39187;48.476;8.310;2022-09-03T05:57:22;3.57;;;2.23;;
53299;SDS011;39187;48.476;8.310;2022-09-03T05:59:48;2.60;;;2.40;;
53299;SDS011;39187;48.476;8.310;2022-09-03T06:02:14;2.73;;;2.47;;
53299;SDS011;39187;48.476;8.310;2022-09-03T06:04:40;2.57;;;2.47;;
53299;SDS011;39187;48.476;8.310;2022-09-03T06:07:05;3.30;;;3.20;;
53299;SDS011;39187;48.476;8.310;2022-09-03T06:09:31;2.67;;;2.50;;
53299;SDS011;39187;48.476;8.310;2022-09-03T06:11:56;3.40;;;3.30;;
53299;SDS011;39187;48.476;8.310;2022-09-03T06:14:22;3.60;;;3.40;;
53299;SDS011;39187;48.476;8.310;2022-09-03T06:16:48;2.90;;;2.80;;
53299;SDS011;39187;48.476;8.310;2022-09-03T06:19:14;3.77;;;3.67;;
53299;SDS011;39187;48.476;8.310;2022-09-03T06:21:41;3.67;;;3.47;;
53299;SDS011;39187;48.476;8.310;2022-09-03T06:24:09;2.90;;;2.70;;
53299;SDS011;39187;48.476;8.310;2022-09-03T06:26:39;2.80;;;2.60;;
53299;SDS011;39187;48.476;8.310;2022-09-03T06:29:05;3.20;;;2.90;;
53299;SDS011;39187;48.476;8.310;2022-09-03T06:31:32;6.47;;;6.10;;
53299;SDS011;39187;48.476;8.310;2022-09-03T06:33:58;3.00;;;2.80;;
53299;SDS011;39187;48.476;8.310;2022-09-03T06:36:24;3.60;;;3.40;;
53299;SDS011;39187;48.476;8.310;2022-09-03T06:38:51;3.40;;;3.30;;
53299;SDS011;39187;48.476;8.310;2022-09-03T06:41:19;2.70;;;2.50;;
53299;SDS011;39187;48.476;8.310;2022-09-03T06:43:52;2.73;;;2.63;;
53299;SDS011;39187;48.476;8.310;2022-09-03T06:46:32;2.60;;;2.50;;
53299;SDS011;39187;48.476;8.310;2022-09-03T06:49:00;2.93;;;2.83;;
53299;SDS011;39187;48.476;8.310;2022-09-03T06:51:26;2.50;;;2.40;;
53299;SDS011;39187;48.476;8.310;2022-09-03T06:53:54;2.30;;;2.20;;
53299;SDS011;39187;48.476;8.310;2022-09-03T06:56:24;2.40;;;2.30;;
53299;SDS011;39187;48.476;8.310;2022-09-03T06:58:51;2.27;;;2.17;;
53299;SDS011;39187;48.476;8.310;2022-09-03T07:01:19;2.43;;;2.20;;
53299;SDS011;39187;48.476;8.310;2022-09-03T07:03:47;2.40;;;2.30;;
53299;SDS011;39187;48.476;8.310;2022-09-03T07:06:20;2.53;;;1.93;;
53299;SDS011;39187;48.476;8.310;2022-09-03T07:08:46;1.93;;;1.83;;
53299;SDS011;39187;48.476;8.310;2022-09-03T07:11:13;2.67;;;2.57;;
53299;SDS011;39187;48.476;8.310;2022-09-03T07:13:41;2.40;;;2.30;;
53299;SDS011;39187;48.476;8.310;2022-09-03T07:16:12;2.67;;;2.57;;
53299;SDS011;39187;48.476;8.310;2022-09-03T07:18:39;2.90;;;2.70;;
53299;SDS011;39187;48.476;8.310;2022-09-03T07:21:08;2.20;;;2.10;;
53299;SDS011;39187;48.476;8.310;2022-09-03T07:23:36;2.33;;;2.23;;
53299;SDS011;39187;48.476;8.310;2022-09-03T07:26:03;2.93;;;2.70;;
53299;SDS011;39187;48.476;8.310;2022-09-03T07:28:35;2.67;;;2.57;;
53299;SDS011;39187;48.476;8.310;2022-09-03T07:31:23;2.87;;;2.60;;
53299;SDS011;39187;48.476;8.310;2022-09-03T07:33:54;3.13;;;3.03;;
53299;SDS011;39187;48.476;8.310;2022-09-03T07:36:21;2.87;;;2.77;;
53299;SDS011;39187;48.476;8.310;2022-09-03T07:38:49;2.93;;;2.83;;
53299;SDS011;39187;48.476;8.310;2022-09-03T07:41:14;3.20;;;3.00;;
53299;SDS011;39187;48.476;8.310;2022-09-03T07:43:44;3.03;;;2.93;;
53299;SDS011;39187;48.476;8.310;2022-09-03T07:46:14;3.43;;;3.20;;
53299;SDS011;39187;48.476;8.310;2022-09-03T07:48:45;3.40;;;3.30;;
53299;SDS011;39187;48.476;8.310;2022-09-03T07:51:13;2.90;;;2.80;;
53299;SDS011;39187;48.476;8.310;2022-09-03T07:53:39;3.30;;;2.97;;
53299;SDS011;39187;48.476;8.310;2022-09-03T07:56:05;3.13;;;3.03;;
53299;SDS011;39187;48.476;8.310;2022-09-03T07:58:33;3.40;;;3.20;;
53299;SDS011;39187;48.476;8.310;2022-09-03T08:01:33;3.10;;;3.00;;
53299;SDS011;39187;48.476;8.310;2022-09-03T08:03:53;2.80;;;2.70;;
53299;SDS011;39187;48.476;8.310;2022-09-03T08:06:20;2.67;;;2.57;;
53299;SDS011;39187;48.476;8.310;2022-09-03T08:08:47;3.03;;;2.93;;
53299;SDS011;39187;48.476;8.310;2022-09-03T08:11:18;3.03;;;2.93;;
53299;SDS011;39187;48.476;8.310;2022-09-03T08:13:53;3.10;;;3.00;;
53299;SDS011;39187;48.476;8.310;2022-09-03T08:16:25;3.33;;;2.70;;
53299;SDS011;39187;48.476;8.310;2022-09-03T08:18:52;3.10;;;3.00;;
53299;SDS011;39187;48.476;8.310;2022-09-03T08:21:19;3.10;;;3.00;;
53299;SDS011;39187;48.476;8.310;2022-09-03T08:23:46;2.97;;;2.87;;
53299;SDS011;39187;48.476;8.310;2022-09-03T08:26:13;3.47;;;3.37;;
53299;SDS011;39187;48.476;8.310;2022-09-03T08:28:40;2.83;;;2.63;;
53299;SDS011;39187;48.476;8.310;2022-09-03T08:31:10;3.73;;;3.53;;
53299;SDS011;39187;48.476;8.310;2022-09-03T08:33:42;3.60;;;3.30;;
53299;SDS011;39187;48.476;8.310;2022-09-03T08:36:11;3.30;;;3.10;;
53299;SDS011;39187;48.476;8.310;2022-09-03T08:38:38;3.70;;;3.60;;
53299;SDS011;39187;48.476;8.310;2022-09-03T08:41:06;4.30;;;2.97;;
53299;SDS011;39187;48.476;8.310;2022-09-03T08:44:02;3.27;;;2.97;;
53299;SDS011;39187;48.476;8.310;2022-09-03T08:46:47;2.90;;;2.70;;
53299;SDS011;39187;48.476;8.310;2022-09-03T08:49:19;3.03;;;2.93;;
53299;SDS011;39187;48.476;8.310;2022-09-03T08:51:51;2.70;;;2.60;;
53299;SDS011;39187;48.476;8.310;2022-09-03T08:54:21;2.77;;;2.60;;
53299;SDS011;39187;48.476;8.310;2022-09-03T08:56:50;2.40;;;2.30;;
53299;SDS011;39187;48.476;8.310;2022-09-03T08:59:18;2.40;;;2.30;;
53299;SDS011;39187;48.476;8.310;2022-09-03T09:04:21;1.77;;;1.67;;
53299;SDS011;39187;48.476;8.310;2022-09-03T09:10:02;1.33;;;1.33;;
53299;SDS011;39187;48.476;8.310;2022-09-03T09:12:49;1.77;;;1.67;;
53299;SDS011;39187;48.476;8.310;2022-09-03T09:18:45;1.43;;;1.33;;
53299;SDS011;39187;48.476;8.310;2022-09-03T09:21:41;1.90;;;1.80;;
53299;SDS011;39187;48.476;8.310;2022-09-03T09:24:55;1.80;;;1.70;;
53299;SDS011;39187;48.476;8.310;2022-09-03T09:27:12;2.00;;;1.90;;
53299;SDS011;39187;48.476;8.310;2022-09-03T09:29:41;2.13;;;2.03;;
53299;SDS011;39187;48.476;8.310;2022-09-03T09:32:10;2.00;;;1.90;;
53299;SDS011;39187;48.476;8.310;2022-09-03T09:34:38;2.10;;;2.00;;
53299;SDS011;39187;48.476;8.310;2022-09-03T09:37:07;2.20;;;2.10;;
53299;SDS011;39187;48.476;8.310;2022-09-03T09:39:35;1.83;;;1.73;;
53299;SDS011;39187;48.476;8.310;2022-09-03T09:42:09;1.77;;;1.67;;
53299;SDS011;39187;48.476;8.310;2022-09-03T09:44:39;2.10;;;2.00;;
53299;SDS011;39187;48.476;8.310;2022-09-03T09:47:11;2.00;;;1.90;;
53299;SDS011;39187;48.476;8.310;2022-09-03T09:49:59;2.17;;;2.07;;
53299;SDS011;39187;48.476;8.310;2022-09-03T09:52:27;2.33;;;2.23;;
53299;SDS011;39187;48.476;8.310;2022-09-03T09:55:14;2.20;;;2.00;;
53299;SDS011;39187;48.476;8.310;2022-09-03T09:57:42;2.23;;;2.13;;
53299;SDS011;39187;48.476;8.310;2022-09-03T10:00:09;2.50;;;2.40;;
53299;SDS011;39187;48.476;8.310;2022-09-03T10:02:39;1.90;;;1.80;;
53299;SDS011;39187;48.476;8.310;2022-09-03T10:07:55;1.97;;;1.87;;
53299;SDS011;39187;48.476;8.310;2022-09-03T10:10:23;1.90;;;1.80;;
53299;SDS011;39187;48.476;8.310;2022-09-03T10:12:52;2.80;;;2.60;;
53299;SDS011;39187;48.476;8.310;2022-09-03T10:15:30;2.83;;;2.63;;
53299;SDS011;39187;48.476;8.310;2022-09-03T10:18:18;2.80;;;2.70;;
53299;SDS011;39187;48.476;8.310;2022-09-03T10:26:15;3.17;;;3.07;;
53299;SDS011;39187;48.476;8.310;2022-09-03T10:28:44;3.17;;;2.97;;
53299;SDS011;39187;48.476;8.310;2022-09-03T10:39:14;3.63;;;3.43;;
53299;SDS011;39187;48.476;8.310;2022-09-03T10:55:40;3.27;;;3.17;;
53299;SDS011;39187;48.476;8.310;2022-09-03T10:58:24;4.03;;;3.87;;
53299;SDS011;39187;48.476;8.310;2022-09-03T11:00:52;3.53;;;3.43;;
53299;SDS011;39187;48.476;8.310;2022-09-03T11:08:21;3.83;;;3.63;;
53299;SDS011;39187;48.476;8.310;2022-09-03T11:11:18;4.00;;;3.80;;
53299;SDS011;39187;48.476;8.310;2022-09-03T11:13:52;4.10;;;4.00;;
53299;SDS011;39187;48.476;8.310;2022-09-03T11:16:27;3.63;;;3.43;;
53299;SDS011;39187;48.476;8.310;2022-09-03T11:19:01;3.67;;;3.47;;
53299;SDS011;39187;48.476;8.310;2022-09-03T11:21:30;3.67;;;3.57;;
53299;SDS011;39187;48.476;8.310;2022-09-03T11:24:06;3.70;;;3.50;;
53299;SDS011;39187;48.476;8.310;2022-09-03T11:26:34;3.23;;;3.10;;
53299;SDS011;39187;48.476;8.310;2022-09-03T11:29:03;5.57;;;3.13;;
53299;SDS011;39187;48.476;8.310;2022-09-03T11:34:46;4.93;;;4.43;;
53299;SDS011;39187;48.476;8.310;2022-09-03T11:37:20;5.73;;;3.53;;
53299;SDS011;39187;48.476;8.310;2022-09-03T11:42:33;3.63;;;3.43;;
53299;SDS011;39187;48.476;8.310;2022-09-03T11:45:12;3.97;;;3.77;;
53299;SDS011;39187;48.476;8.310;2022-09-03T11:47:58;3.20;;;3.10;;
53299;SDS011;39187;48.476;8.310;2022-09-03T11:50:25;3.87;;;3.50;;
53299;SDS011;39187;48.476;8.310;2022-09-03T11:52:54;3.20;;;2.83;;
53299;SDS011;39187;48.476;8.310;2022-09-03T11:55:50;2.70;;;2.50;;
53299;SDS011;39187;48.476;8.310;2022-09-03T11:58:24;3.00;;;2.90;;
53299;SDS011;39187;48.476;8.310;2022-09-03T12:00:54;2.70;;;2.53;;
53299;SDS011;39187;48.476;8.310;2022-09-03T12:03:24;3.23;;;2.57;;
53299;SDS011;39187;48.476;8.310;2022-09-03T12:19:06;2.07;;;1.97;;
53299;SDS011;39187;48.476;8.310;2022-09-03T12:21:46;1.87;;;1.77;;
53299;SDS011;39187;48.476;8.310;2022-09-03T12:24:13;2.37;;;2.20;;
53299;SDS011;39187;48.476;8.310;2022-09-03T12:26:40;2.63;;;2.43;;
53299;SDS011;39187;48.476;8.310;2022-09-03T12:29:19;1.80;;;1.70;;
53299;SDS011;39187;48.476;8.310;2022-09-03T12:31:47;1.93;;;1.83;;
53299;SDS011;39187;48.476;8.310;2022-09-03T12:34:15;1.60;;;1.50;;
53299;SDS011;39187;48.476;8.310;2022-09-03T12:36:43;1.60;;;1.50;;
53299;SDS011;39187;48.476;8.310;2022-09-03T12:39:15;1.50;;;1.40;;
53299;SDS011;39187;48.476;8.310;2022-09-03T12:42:04;2.10;;;1.80;;
53299;SDS011;39187;48.476;8.310;2022-09-03T12:49:42;1.80;;;1.70;;
53299;SDS011;39187;48.476;8.310;2022-09-03T12:52:17;1.93;;;1.83;;
53299;SDS011;39187;48.476;8.310;2022-09-03T12:54:58;1.67;;;1.57;;
53299;SDS011;39187;48.476;8.310;2022-09-03T12:57:41;1.50;;;1.40;;
53299;SDS011;39187;48.476;8.310;2022-09-03T13:00:12;1.93;;;1.70;;
53299;SDS011;39187;48.476;8.310;2022-09-03T13:05:18;1.33;;;1.30;;
53299;SDS011;39187;48.476;8.310;2022-09-03T13:07:53;1.30;;;1.20;;
53299;SDS011;39187;48.476;8.310;2022-09-03T13:10:30;0.87;;;0.80;;
53299;SDS011;39187;48.476;8.310;2022-09-03T13:13:00;1.00;;;1.00;;
53299;SDS011;39187;48.476;8.310;2022-09-03T13:15:28;1.07;;;1.03;;
53299;SDS011;39187;48.476;8.310;2022-09-03T13:23:35;1.00;;;0.90;;
53299;SDS011;39187;48.476;8.310;2022-09-03T13:26:08;0.90;;;0.90;;
53299;SDS011;39187;48.476;8.310;2022-09-03T13:31:31;1.67;;;1.27;;
53299;SDS011;39187;48.476;8.310;2022-09-03T13:34:06;0.90;;;0.80;;
53299;SDS011;39187;48.476;8.310;2022-09-03T13:36:53;0.80;;;0.80;;
53299;SDS011;39187;48.476;8.310;2022-09-03T13:39:37;0.80;;;0.80;;
53299;SDS011;39187;48.476;8.310;2022-09-03T13:47:47;1.47;;;0.83;;
53299;SDS011;39187;48.476;8.310;2022-09-03T13:50:41;0.70;;;0.70;;
53299;SDS011;39187;48.476;8.310;2022-09-03T13:53:17;1.23;;;0.80;;
53299;SDS011;39187;48.476;8.310;2022-09-03T13:55:58;1.07;;;0.90;;
53299;SDS011;39187;48.476;8.310;2022-09-03T13:58:47;0.60;;;0.60;;
53299;SDS011;39187;48.476;8.310;2022-09-03T14:04:21;0.80;;;0.80;;
53299;SDS011;39187;48.476;8.310;2022-09-03T14:07:05;1.17;;;1.17;;
53299;SDS011;39187;48.476;8.310;2022-09-03T14:19:08;1.53;;;1.43;;
53299;SDS011;39187;48.476;8.310;2022-09-03T14:21:45;1.10;;;1.10;;
53299;SDS011;39187;48.476;8.310;2022-09-03T14:24:26;1.27;;;1.20;;
53299;SDS011;39187;48.476;8.310;2022-09-03T14:27:12;1.40;;;1.10;;
53299;SDS011;39187;48.476;8.310;2022-09-03T14:29:50;1.40;;;1.30;;
53299;SDS011;39187;48.476;8.310;2022-09-03T14:32:23;1.50;;;1.40;;
53299;SDS011;39187;48.476;8.310;2022-09-03T14:57:51;1.20;;;1.20;;
53299;SDS011;39187;48.476;8.310;2022-09-03T15:00:57;1.00;;;1.00;;
53299;SDS011;39187;48.476;8.310;2022-09-03T15:04:18;1.43;;;1.33;;
53299;SDS011;39187;48.476;8.310;2022-09-03T15:09:17;1.40;;;1.30;;
53299;SDS011;39187;48.476;8.310;2022-09-03T15:11:53;1.40;;;1.23;;
53299;SDS011;39187;48.476;8.310;2022-09-03T15:14:25;1.67;;;1.57;;
53299;SDS011;39187;48.476;8.310;2022-09-03T15:20:02;1.83;;;1.27;;
53299;SDS011;39187;48.476;8.310;2022-09-03T15:25:25;1.23;;;1.13;;
53299;SDS011;39187;48.476;8.310;2022-09-03T15:30:42;1.70;;;1.60;;
53299;SDS011;39187;48.476;8.310;2022-09-03T15:44:15;0.93;;;0.93;;
53299;SDS011;39187;48.476;8.310;2022-09-03T15:49:18;0.90;;;0.90;;
53299;SDS011;39187;48.476;8.310;2022-09-03T15:58:21;1.20;;;1.03;;
53299;SDS011;39187;48.476;8.310;2022-09-03T16:00:56;0.70;;;0.70;;
53299;SDS011;39187;48.476;8.310;2022-09-03T16:03:36;1.17;;;1.07;;
53299;SDS011;39187;48.476;8.310;2022-09-03T16:06:16;0.80;;;0.80;;
53299;SDS011;39187;48.476;8.310;2022-09-03T16:08:58;0.90;;;0.90;;
53299;SDS011;39187;48.476;8.310;2022-09-03T16:17:12;0.90;;;0.90;;
53299;SDS011;39187;48.476;8.310;2022-09-03T16:20:02;1.80;;;0.90;;
53299;SDS011;39187;48.476;8.310;2022-09-03T16:27:49;0.87;;;0.87;;
53299;SDS011;39187;48.476;8.310;2022-09-03T16:33:10;0.90;;;0.90;;
53299;SDS011;39187;48.476;8.310;2022-09-03T16:36:02;1.07;;;1.07;;
53299;SDS011;39187;48.476;8.310;2022-09-03T16:38:46;1.30;;;1.20;;
53299;SDS011;39187;48.476;8.310;2022-09-03T16:41:23;1.80;;;0.97;;
53299;SDS011;39187;48.476;8.310;2022-09-03T17:00:19;0.93;;;0.93;;
53299;SDS011;39187;48.476;8.310;2022-09-03T17:03:00;1.27;;;1.17;;
53299;SDS011;39187;48.476;8.310;2022-09-03T17:11:05;1.30;;;1.30;;
53299;SDS011;39187;48.476;8.310;2022-09-03T17:13:50;1.10;;;1.10;;
53299;SDS011;39187;48.476;8.310;2022-09-03T17:19:24;2.20;;;1.17;;
53299;SDS011;39187;48.476;8.310;2022-09-03T17:24:43;1.30;;;1.03;;
53299;SDS011;39187;48.476;8.310;2022-09-03T17:30:27;1.43;;;1.00;;
53299;SDS011;39187;48.476;8.310;2022-09-03T17:33:18;1.43;;;1.37;;
53299;SDS011;39187;48.476;8.310;2022-09-03T17:36:05;1.10;;;1.10;;
53299;SDS011;39187;48.476;8.310;2022-09-03T17:49:31;1.30;;;1.20;;
53299;SDS011;39187;48.476;8.310;2022-09-03T17:52:52;1.40;;;1.30;;
53299;SDS011;39187;48.476;8.310;2022-09-03T17:55:10;1.40;;;1.40;;
53299;SDS011;39187;48.476;8.310;2022-09-03T17:57:56;1.60;;;1.50;;
53299;SDS011;39187;48.476;8.310;2022-09-03T18:11:46;1.30;;;1.20;;
53299;SDS011;39187;48.476;8.310;2022-09-03T18:14:16;6.90;;;1.50;;
53299;SDS011;39187;48.476;8.310;2022-09-03T18:16:53;1.73;;;1.63;;
53299;SDS011;39187;48.476;8.310;2022-09-03T18:21:58;4.17;;;1.10;;
53299;SDS011;39187;48.476;8.310;2022-09-03T18:24:53;1.50;;;1.40;;
53299;SDS011;39187;48.476;8.310;2022-09-03T18:27:56;1.83;;;1.43;;
53299;SDS011;39187;48.476;8.310;2022-09-03T18:30:44;1.60;;;1.50;;
53299;SDS011;39187;48.476;8.310;2022-09-03T18:33:28;1.53;;;1.43;;
53299;SDS011;39187;48.476;8.310;2022-09-03T18:36:12;2.37;;;2.27;;
53299;SDS011;39187;48.476;8.310;2022-09-03T18:39:25;2.00;;;1.20;;
53299;SDS011;39187;48.476;8.310;2022-09-03T18:42:50;1.67;;;1.57;;
53299;SDS011;39187;48.476;8.310;2022-09-03T18:48:48;1.77;;;1.67;;
53299;SDS011;39187;48.476;8.310;2022-09-03T18:54:58;1.77;;;1.67;;
53299;SDS011;39187;48.476;8.310;2022-09-03T19:01:04;1.90;;;1.80;;
53299;SDS011;39187;48.476;8.310;2022-09-03T19:07:10;1.90;;;1.80;;
53299;SDS011;39187;48.476;8.310;2022-09-03T19:10:07;2.27;;;2.10;;
53299;SDS011;39187;48.476;8.310;2022-09-03T19:16:01;2.03;;;1.93;;
53299;SDS011;39187;48.476;8.310;2022-09-03T19:18:57;1.90;;;1.80;;
53299;SDS011;39187;48.476;8.310;2022-09-03T19:21:47;2.43;;;2.23;;
53299;SDS011;39187;48.476;8.310;2022-09-03T19:24:36;1.80;;;1.70;;
53299;SDS011;39187;48.476;8.310;2022-09-03T19:30:52;2.30;;;2.20;;
53299;SDS011;39187;48.476;8.310;2022-09-03T19:36:36;2.40;;;2.30;;
53299;SDS011;39187;48.476;8.310;2022-09-03T19:51:52;4.83;;;4.30;;
53299;SDS011;39187;48.476;8.310;2022-09-03T19:54:43;3.10;;;3.00;;
53299;SDS011;39187;48.476;8.310;2022-09-03T19:57:30;3.80;;;3.60;;
53299;SDS011;39187;48.476;8.310;2022-09-03T20:00:14;7.60;;;2.87;;
53299;SDS011;39187;48.476;8.310;2022-09-03T20:02:59;2.97;;;2.87;;
53299;SDS011;39187;48.476;8.310;2022-09-03T20:05:44;2.77;;;2.67;;
53299;SDS011;39187;48.476;8.310;2022-09-03T20:08:28;2.33;;;2.23;;
53299;SDS011;39187;48.476;8.310;2022-09-03T20:11:17;2.53;;;2.43;;
53299;SDS011;39187;48.476;8.310;2022-09-03T20:13:45;2.20;;;2.10;;
53299;SDS011;39187;48.476;8.310;2022-09-03T20:16:48;3.00;;;2.40;;
53299;SDS011;39187;48.476;8.310;2022-09-03T20:24:49;2.43;;;2.33;;
53299;SDS011;39187;48.476;8.310;2022-09-03T20:30:31;3.07;;;2.97;;
53299;SDS011;39187;48.476;8.310;2022-09-03T20:35:54;3.63;;;3.50;;
53299;SDS011;39187;48.476;8.310;2022-09-03T20:44:27;3.20;;;3.00;;
53299;SDS011;39187;48.476;8.310;2022-09-03T20:50:20;3.63;;;2.80;;
53299;SDS011;39187;48.476;8.310;2022-09-03T20:53:13;2.90;;;2.70;;
53299;SDS011;39187;48.476;8.310;2022-09-03T20:56:13;3.00;;;2.90;;
53299;SDS011;39187;48.476;8.310;2022-09-03T21:01:52;3.20;;;3.00;;
53299;SDS011;39187;48.476;8.310;2022-09-03T21:07:28;3.13;;;3.00;;
53299;SDS011;39187;48.476;8.310;2022-09-03T21:10:11;3.30;;;3.10;;